sensor_id;sensor_type;location;lat;lon;timestamp;pressure;altitude;pressure_sealevel;temperature;humidity
42001;BME280;27689;48.390;10.856;2023-06-22T00:01:13;96156.38;;;20.36;100.00
42001;BME280;27689;48.390;10.856;2023-06-22T00:03:58;96157.19;;;20.36;100.00
42001;BME280;27689;48.390;10.856;2023-06-22T00:06:42;96145.09;;;20.34;100.00
42001;BME280;27689;48.390;10.856;2023-06-22T00:09:26;96149.22;;;20.30;100.00
42001;BME280;27689;48.390;10.856;2023-06-22T00:12:10;96151.88;;;20.30;100.00
42001;BME280;27689;48.390;10.856;2023-06-22T00:14:54;96158.41;;;20.27;100.00
42001;BME280;27689;48.390;10.856;2023-06-22T00:17:38;96161.28;;;20.26;100.00
42001;BME280;27689;48.390;10.856;2023-06-22T00:20:22;96162.09;;;20.26;100.00
42001;BME280;27689;48.390;10.856;2023-06-22T00:23:07;96150.63;;;20.26;100.00
42001;BME280;27689;48.390;10.856;2023-06-22T00:25:51;96167.41;;;20.26;100.00
42001;BME280;27689;48.390;10.856;2023-06-22T00:28:36;96156.38;;;20.23;100.00
42001;BME280;27689;48.390;10.856;2023-06-22T00:31:20;96166.19;;;20.22;100.00
42001;BME280;27689;48.390;10.856;2023-06-22T00:34:04;96170.69;;;20.22;100.00
42001;BME280;27689;48.390;10.856;2023-06-22T00:36:50;96157.78;;;20.19;100.00
42001;BME280;27689;48.390;10.856;2023-06-22T00:39:35;96169.47;;;20.18;100.00
42001;BME280;27689;48.390;10.856;2023-06-22T00:42:19;96160.06;;;20.15;100.00
42001;BME280;27689;48.390;10.856;2023-06-22T00:45:04;96164.56;;;20.15;100.00
42001;BME280;27689;48.390;10.856;2023-06-22T00:47:48;96155.34;;;20.11;100.00
42001;BME280;27689;48.390;10.856;2023-06-22T00:50:33;96154.31;;;20.12;100.00
42001;BME280;27689;48.390;10.856;2023-06-22T00:53:18;96144.50;;;20.12;100.00
42001;BME280;27689;48.390;10.856;2023-06-22T00:56:02;96134.28;;;20.09;100.00
42001;BME280;27689;48.390;10.856;2023-06-22T00:58:46;96136.13;;;20.08;100.00
42001;BME280;27689;48.390;10.856;2023-06-22T01:01:30;96130.19;;;20.06;100.00
42001;BME280;27689;48.390;10.856;2023-06-22T01:04:14;96133.25;;;20.03;100.00
42001;BME280;27689;48.390;10.856;2023-06-22T01:07:31;96140.00;;;19.99;100.00
42001;BME280;27689;48.390;10.856;2023-06-22T01:13:43;96141.44;;;19.95;100.00
42001;BME280;27689;48.390;10.856;2023-06-22T01:16:34;96151.06;;;19.96;100.00
42001;BME280;27689;48.390;10.856;2023-06-22T01:19:50;96144.09;;;19.95;100.00
42001;BME280;27689;48.390;10.856;2023-06-22T01:22:59;96140.19;;;19.91;100.00
42001;BME280;27689;48.390;10.856;2023-06-22T01:25:46;96148.38;;;19.90;100.00
42001;BME280;27689;48.390;10.856;2023-06-22T01:28:45;96153.94;;;19.88;100.00
42001;BME280;27689;48.390;10.856;2023-06-22T01:31:31;96162.94;;;19.87;100.00
42001;BME280;27689;48.390;10.856;2023-06-22T01:34:18;96159.22;;;19.82;100.00
42001;BME280;27689;48.390;10.856;2023-06-22T01:37:02;96182.13;;;19.76;100.00
42001;BME280;27689;48.390;10.856;2023-06-22T01:39:47;96181.69;;;19.66;100.00
42001;BME280;27689;48.390;10.856;2023-06-22T01:42:32;96177.00;;;19.68;100.00
42001;BME280;27689;48.390;10.856;2023-06-22T01:45:17;96173.31;;;19.62;100.00
42001;BME280;27689;48.390;10.856;2023-06-22T01:48:02;96173.91;;;19.64;100.00
42001;BME280;27689;48.390;10.856;2023-06-22T01:50:47;96186.16;;;19.59;100.00
42001;BME280;27689;48.390;10.856;2023-06-22T01:53:31;96182.06;;;19.50;100.00
42001;BME280;27689;48.390;10.856;2023-06-22T01:56:18;96181.66;;;19.53;100.00
42001;BME280;27689;48.390;10.856;2023-06-22T02:02:09;96168.13;;;19.48;100.00
42001;BME280;27689;48.390;10.856;2023-06-22T02:04:57;96170.97;;;19.46;100.00
42001;BME280;27689;48.390;10.856;2023-06-22T02:07:58;96173.84;;;19.45;100.00
42001;BME280;27689;48.390;10.856;2023-06-22T02:10:45;96159.97;;;19.43;100.00
42001;BME280;27689;48.390;10.856;2023-06-22T02:13:30;96159.72;;;19.44;100.00
42001;BME280;27689;48.390;10.856;2023-06-22T02:16:15;96165.28;;;19.43;100.00
42001;BME280;27689;48.390;10.856;2023-06-22T02:19:01;96159.53;;;19.39;100.00
42001;BME280;27689;48.390;10.856;2023-06-22T02:21:50;96158.72;;;19.38;100.00
42001;BME280;27689;48.390;10.856;2023-06-22T02:24:34;96163.00;;;19.40;100.00
42001;BME280;27689;48.390;10.856;2023-06-22T02:27:18;96153.78;;;19.35;100.00
42001;BME280;27689;48.390;10.856;2023-06-22T02:30:02;96156.44;;;19.35;100.00
42001;BME280;27689;48.390;10.856;2023-06-22T02:32:47;96152.16;;;19.34;100.00
42001;BME280;27689;48.390;10.856;2023-06-22T02:35:31;96157.47;;;19.34;100.00
42001;BME280;27689;48.390;10.856;2023-06-22T02:38:15;96158.28;;;19.35;100.00
42001;BME280;27689;48.390;10.856;2023-06-22T02:41:01;96154.56;;;19.29;100.00
42001;BME280;27689;48.390;10.856;2023-06-22T02:43:47;96155.41;;;19.30;100.00
42001;BME280;27689;48.390;10.856;2023-06-22T02:46:31;96165.63;;;19.26;100.00
42001;BME280;27689;48.390;10.856;2023-06-22T02:49:15;96177.28;;;19.25;100.00
42001;BME280;27689;48.390;10.856;2023-06-22T02:51:59;96172.75;;;19.19;100.00
42001;BME280;27689;48.390;10.856;2023-06-22T02:54:43;96168.44;;;19.18;100.00
42001;BME280;27689;48.390;10.856;2023-06-22T02:57:29;96157.81;;;19.12;100.00
42001;BME280;27689;48.390;10.856;2023-06-22T03:00:14;96167.22;;;19.14;100.00
42001;BME280;27689;48.390;10.856;2023-06-22T03:03:01;96167.63;;;19.11;100.00
42001;BME280;27689;48.390;10.856;2023-06-22T03:05:45;96168.81;;;19.09;100.00
42001;BME280;27689;48.390;10.856;2023-06-22T03:08:29;96171.69;;;19.07;100.00
42001;BME280;27689;48.390;10.856;2023-06-22T03:11:13;96171.25;;;19.03;100.00
42001;BME280;27689;48.390;10.856;2023-06-22T03:13:58;96163.22;;;18.90;100.00
42001;BME280;27689;48.390;10.856;2023-06-22T03:16:42;96162.59;;;18.88;100.00
42001;BME280;27689;48.390;10.856;2023-06-22T03:19:26;96165.50;;;18.93;100.00
42001;BME280;27689;48.390;10.856;2023-06-22T03:22:10;96162.66;;;18.95;100.00
42001;BME280;27689;48.390;10.856;2023-06-22T03:24:53;96164.28;;;18.96;100.00
42001;BME280;27689;48.390;10.856;2023-06-22T03:27:37;96167.13;;;18.94;100.00
42001;BME280;27689;48.390;10.856;2023-06-22T03:30:21;96151.81;;;18.96;100.00
42001;BME280;27689;48.390;10.856;2023-06-22T03:33:05;96156.13;;;18.97;100.00
42001;BME280;27689;48.390;10.856;2023-06-22T03:35:49;96160.63;;;18.97;100.00
42001;BME280;27689;48.390;10.856;2023-06-22T03:38:33;96159.78;;;18.96;100.00
42001;BME280;27689;48.390;10.856;2023-06-22T03:41:17;96157.75;;;18.98;100.00
42001;BME280;27689;48.390;10.856;2023-06-22T03:44:02;96159.16;;;18.94;100.00
42001;BME280;27689;48.390;10.856;2023-06-22T03:46:46;96166.94;;;18.96;100.00
42001;BME280;27689;48.390;10.856;2023-06-22T03:49:30;96161.38;;;18.91;100.00
42001;BME280;27689;48.390;10.856;2023-06-22T03:52:14;96156.72;;;18.93;100.00
42001;BME280;27689;48.390;10.856;2023-06-22T03:54:58;96145.91;;;18.94;100.00
42001;BME280;27689;48.390;10.856;2023-06-22T03:57:42;96156.13;;;18.97;100.00
42001;BME280;27689;48.390;10.856;2023-06-22T04:00:26;96153.66;;;18.96;100.00
42001;BME280;27689;48.390;10.856;2023-06-22T04:03:10;96161.00;;;19.00;100.00
42001;BME280;27689;48.390;10.856;2023-06-22T04:05:55;96162.25;;;18.98;100.00
42001;BME280;27689;48.390;10.856;2023-06-22T04:08:39;96165.31;;;19.01;100.00
42001;BME280;27689;48.390;10.856;2023-06-22T04:11:24;96173.72;;;19.05;100.00
42001;BME280;27689;48.390;10.856;2023-06-22T04:14:08;96163.09;;;19.05;100.00
42001;BME280;27689;48.390;10.856;2023-06-22T04:16:52;96175.59;;;19.11;100.00
42001;BME280;27689;48.390;10.856;2023-06-22T04:19:36;96167.00;;;19.09;100.00
42001;BME280;27689;48.390;10.856;2023-06-22T04:22:20;96162.50;;;19.10;100.00
42001;BME280;27689;48.390;10.856;2023-06-22T04:25:05;96172.72;;;19.13;100.00
42001;BME280;27689;48.390;10.856;2023-06-22T04:27:51;96174.38;;;19.14;100.00
42001;BME280;27689;48.390;10.856;2023-06-22T04:30:35;96181.34;;;19.21;100.00
42001;BME280;27689;48.390;10.856;2023-06-22T04:33:19;96165.78;;;19.18;100.00
42001;BME280;27689;48.390;10.856;2023-06-22T04:36:03;96168.28;;;19.26;100.00
42001;BME280;27689;48.390;10.856;2023-06-22T04:38:48;96170.75;;;19.28;100.00
42001;BME280;27689;48.390;10.856;2023-06-22T04:41:37;96161.53;;;19.30;100.00
42001;BME280;27689;48.390;10.856;2023-06-22T04:44:28;96154.19;;;19.32;100.00
42001;BME280;27689;48.390;10.856;2023-06-22T04:47:12;96164.63;;;19.34;100.00
42001;BME280;27689;48.390;10.856;2023-06-22T04:49:56;96172.78;;;19.32;100.00
42001;BME280;27689;48.390;10.856;2023-06-22T04:52:40;96170.56;;;19.36;100.00
42001;BME280;27689;48.390;10.856;2023-06-22T04:55:24;96171.19;;;19.45;100.00
42001;BME280;27689;48.390;10.856;2023-06-22T04:58:09;96166.94;;;19.50;100.00
42001;BME280;27689;48.390;10.856;2023-06-22T05:00:56;96162.44;;;19.51;100.00
42001;BME280;27689;48.390;10.856;2023-06-22T05:03:40;96155.72;;;19.55;100.00
42001;BME280;27689;48.390;10.856;2023-06-22T05:06:25;96146.72;;;19.56;100.00
42001;BME280;27689;48.390;10.856;2023-06-22T05:09:09;96153.88;;;19.62;100.00
42001;BME280;27689;48.390;10.856;2023-06-22T05:11:53;96137.72;;;19.63;100.00
42001;BME280;27689;48.390;10.856;2023-06-22T05:14:37;96137.94;;;19.68;100.00
42001;BME280;27689;48.390;10.856;2023-06-22T05:17:21;96139.59;;;19.69;100.00
42001;BME280;27689;48.390;10.856;2023-06-22T05:20:06;96142.84;;;19.78;100.00
42001;BME280;27689;48.390;10.856;2023-06-22T05:22:50;96156.34;;;19.90;100.00
42001;BME280;27689;48.390;10.856;2023-06-22T05:25:34;96151.66;;;19.92;100.00
42001;BME280;27689;48.390;10.856;2023-06-22T05:28:18;96137.75;;;19.96;100.00
42001;BME280;27689;48.390;10.856;2023-06-22T05:31:06;96127.53;;;20.00;100.00
42001;BME280;27689;48.390;10.856;2023-06-22T05:33:52;96122.00;;;20.01;100.00
42001;BME280;27689;48.390;10.856;2023-06-22T05:36:36;96132.84;;;20.06;100.00
42001;BME280;27689;48.390;10.856;2023-06-22T05:39:20;96141.00;;;20.18;100.00
42001;BME280;27689;48.390;10.856;2023-06-22T05:42:05;96133.44;;;20.22;100.00
42001;BME280;27689;48.390;10.856;2023-06-22T05:44:51;96138.75;;;20.22;100.00
42001;BME280;27689;48.390;10.856;2023-06-22T05:47:35;96138.34;;;20.25;100.00
42001;BME280;27689;48.390;10.856;2023-06-22T05:50:18;96140.41;;;20.29;100.00
42001;BME280;27689;48.390;10.856;2023-06-22T05:53:02;96130.97;;;20.33;100.00
42001;BME280;27689;48.390;10.856;2023-06-22T05:55:46;96121.56;;;20.37;100.00
42001;BME280;27689;48.390;10.856;2023-06-22T05:58:30;96137.34;;;20.46;100.00
42001;BME280;27689;48.390;10.856;2023-06-22T06:01:14;96134.03;;;20.50;100.00
42001;BME280;27689;48.390;10.856;2023-06-22T06:03:59;96130.56;;;20.56;100.00
42001;BME280;27689;48.390;10.856;2023-06-22T06:06:43;96122.78;;;20.61;100.00
42001;BME280;27689;48.390;10.856;2023-06-22T06:09:27;96115.16;;;20.65;100.00
42001;BME280;27689;48.390;10.856;2023-06-22T06:12:10;96110.44;;;20.73;100.00
42001;BME280;27689;48.390;10.856;2023-06-22T06:14:55;96108.38;;;20.75;100.00
42001;BME280;27689;48.390;10.856;2023-06-22T06:17:51;96110.59;;;20.85;100.00
42001;BME280;27689;48.390;10.856;2023-06-22T06:20:35;96111.41;;;20.92;100.00
42001;BME280;27689;48.390;10.856;2023-06-22T06:23:19;96106.03;;;20.99;100.00
42001;BME280;27689;48.390;10.856;2023-06-22T06:26:03;96099.88;;;21.05;100.00
42001;BME280;27689;48.390;10.856;2023-06-22T06:28:50;96118.06;;;21.15;100.00
42001;BME280;27689;48.390;10.856;2023-06-22T06:31:34;96111.25;;;21.25;100.00
42001;BME280;27689;48.390;10.856;2023-06-22T06:34:18;96112.44;;;21.36;99.32
42001;BME280;27689;48.390;10.856;2023-06-22T06:37:03;96116.06;;;21.48;99.16
42001;BME280;27689;48.390;10.856;2023-06-22T06:39:46;96116.00;;;21.55;96.73
42001;BME280;27689;48.390;10.856;2023-06-22T06:42:30;96101.81;;;21.61;96.29
42001;BME280;27689;48.390;10.856;2023-06-22T06:45:19;96101.31;;;21.70;96.88
42001;BME280;27689;48.390;10.856;2023-06-22T06:48:06;96096.34;;;21.80;96.15
42001;BME280;27689;48.390;10.856;2023-06-22T06:50:50;96094.22;;;21.89;96.77
42001;BME280;27689;48.390;10.856;2023-06-22T06:53:33;96094.56;;;21.99;96.67
42001;BME280;27689;48.390;10.856;2023-06-22T06:56:17;96094.50;;;22.06;93.80
42001;BME280;27689;48.390;10.856;2023-06-22T06:59:01;96092.75;;;22.18;94.47
42001;BME280;27689;48.390;10.856;2023-06-22T07:01:45;96085.06;;;22.28;95.50
42001;BME280;27689;48.390;10.856;2023-06-22T07:04:32;96099.84;;;22.49;91.96
42001;BME280;27689;48.390;10.856;2023-06-22T07:07:16;96092.34;;;22.58;93.33
42001;BME280;27689;48.390;10.856;2023-06-22T07:10:00;96086.00;;;22.77;90.80
42001;BME280;27689;48.390;10.856;2023-06-22T07:12:45;96086.22;;;22.94;90.46
42001;BME280;27689;48.390;10.856;2023-06-22T07:15:28;96068.81;;;23.03;88.47
42001;BME280;27689;48.390;10.856;2023-06-22T07:18:12;96070.75;;;23.14;86.51
42001;BME280;27689;48.390;10.856;2023-06-22T07:20:56;96068.69;;;23.28;84.93
42001;BME280;27689;48.390;10.856;2023-06-22T07:23:40;96069.78;;;23.38;83.67
42001;BME280;27689;48.390;10.856;2023-06-22T07:26:24;96072.69;;;23.48;85.34
42001;BME280;27689;48.390;10.856;2023-06-22T07:29:08;96066.47;;;23.54;83.51
42001;BME280;27689;48.390;10.856;2023-06-22T07:31:52;96069.75;;;23.68;83.72
42001;BME280;27689;48.390;10.856;2023-06-22T07:34:37;96067.69;;;23.82;85.62
42001;BME280;27689;48.390;10.856;2023-06-22T07:37:21;96056.75;;;23.95;83.91
42001;BME280;27689;48.390;10.856;2023-06-22T07:40:06;96062.13;;;24.07;81.16
42001;BME280;27689;48.390;10.856;2023-06-22T07:42:50;96064.13;;;24.23;80.36
42001;BME280;27689;48.390;10.856;2023-06-22T07:45:37;96058.88;;;24.40;80.32
42001;BME280;27689;48.390;10.856;2023-06-22T07:48:23;96052.34;;;24.59;81.39
42001;BME280;27689;48.390;10.856;2023-06-22T07:51:07;96062.16;;;24.82;80.96
42001;BME280;27689;48.390;10.856;2023-06-22T07:53:51;96063.69;;;24.89;79.40
42001;BME280;27689;48.390;10.856;2023-06-22T07:56:36;96072.06;;;25.05;76.49
42001;BME280;27689;48.390;10.856;2023-06-22T07:59:21;96067.44;;;25.17;78.92
42001;BME280;27689;48.390;10.856;2023-06-22T08:02:05;96065.44;;;25.24;75.01
42001;BME280;27689;48.390;10.856;2023-06-22T08:04:48;96072.88;;;25.34;76.00
42001;BME280;27689;48.390;10.856;2023-06-22T08:07:32;96063.94;;;25.45;77.18
42001;BME280;27689;48.390;10.856;2023-06-22T08:10:17;96069.72;;;25.53;76.02
42001;BME280;27689;48.390;10.856;2023-06-22T08:13:01;96061.31;;;25.61;74.34
42001;BME280;27689;48.390;10.856;2023-06-22T08:15:45;96054.56;;;25.76;72.22
42001;BME280;27689;48.390;10.856;2023-06-22T08:18:29;96059.94;;;25.92;75.38
42001;BME280;27689;48.390;10.856;2023-06-22T08:21:13;96063.13;;;26.06;75.10
42001;BME280;27689;48.390;10.856;2023-06-22T08:23:57;96057.06;;;26.16;74.81
42001;BME280;27689;48.390;10.856;2023-06-22T08:26:41;96061.47;;;26.39;71.90
42001;BME280;27689;48.390;10.856;2023-06-22T08:29:25;96059.38;;;26.62;71.84
42001;BME280;27689;48.390;10.856;2023-06-22T08:32:09;96063.25;;;26.72;67.38
42001;BME280;27689;48.390;10.856;2023-06-22T08:34:57;96067.47;;;26.84;72.43
42001;BME280;27689;48.390;10.856;2023-06-22T08:37:41;96063.66;;;27.02;70.23
42001;BME280;27689;48.390;10.856;2023-06-22T08:40:25;96061.09;;;27.12;68.73
42001;BME280;27689;48.390;10.856;2023-06-22T08:43:09;96064.75;;;27.28;68.35
42001;BME280;27689;48.390;10.856;2023-06-22T08:45:53;96054.97;;;27.44;66.05
42001;BME280;27689;48.390;10.856;2023-06-22T08:48:37;96047.31;;;27.57;67.70
42001;BME280;27689;48.390;10.856;2023-06-22T08:51:21;96060.38;;;27.76;67.61
42001;BME280;27689;48.390;10.856;2023-06-22T08:54:05;96052.47;;;27.96;66.84
42001;BME280;27689;48.390;10.856;2023-06-22T08:56:49;96045.81;;;28.03;62.66
42001;BME280;27689;48.390;10.856;2023-06-22T08:59:33;96049.53;;;28.29;63.59
42001;BME280;27689;48.390;10.856;2023-06-22T09:02:17;96040.47;;;28.46;64.12
42001;BME280;27689;48.390;10.856;2023-06-22T09:05:03;96037.03;;;28.60;64.73
42001;BME280;27689;48.390;10.856;2023-06-22T09:07:47;96038.94;;;28.70;60.51
42001;BME280;27689;48.390;10.856;2023-06-22T09:10:31;96042.56;;;28.86;60.91
42001;BME280;27689;48.390;10.856;2023-06-22T09:13:15;96043.94;;;28.98;60.61
42001;BME280;27689;48.390;10.856;2023-06-22T09:15:59;96041.28;;;29.03;58.92
42001;BME280;27689;48.390;10.856;2023-06-22T09:18:47;96045.06;;;29.07;60.33
42001;BME280;27689;48.390;10.856;2023-06-22T09:21:31;96040.00;;;29.21;60.43
42001;BME280;27689;48.390;10.856;2023-06-22T09:24:15;96037.00;;;29.28;59.55
42001;BME280;27689;48.390;10.856;2023-06-22T09:26:59;96036.47;;;29.26;59.22
42001;BME280;27689;48.390;10.856;2023-06-22T09:29:43;96035.41;;;29.32;58.49
42001;BME280;27689;48.390;10.856;2023-06-22T09:32:26;96028.44;;;29.46;59.13
42001;BME280;27689;48.390;10.856;2023-06-22T09:35:11;96024.13;;;29.50;58.73
42001;BME280;27689;48.390;10.856;2023-06-22T09:37:57;96018.72;;;29.55;60.10
42001;BME280;27689;48.390;10.856;2023-06-22T09:40:41;96014.94;;;29.87;58.83
42001;BME280;27689;48.390;10.856;2023-06-22T09:43:25;96012.81;;;29.94;57.16
42001;BME280;27689;48.390;10.856;2023-06-22T09:46:10;96011.44;;;29.91;56.62
42001;BME280;27689;48.390;10.856;2023-06-22T09:48:53;96012.53;;;30.05;59.01
42001;BME280;27689;48.390;10.856;2023-06-22T09:51:38;96006.56;;;30.19;57.98
42001;BME280;27689;48.390;10.856;2023-06-22T09:54:22;96006.56;;;30.24;57.05
42001;BME280;27689;48.390;10.856;2023-06-22T09:57:06;95997.63;;;30.33;57.95
42001;BME280;27689;48.390;10.856;2023-06-22T09:59:50;95984.59;;;30.45;57.22
42001;BME280;27689;48.390;10.856;2023-06-22T10:02:34;95989.44;;;30.59;56.51
42001;BME280;27689;48.390;10.856;2023-06-22T10:05:19;95992.91;;;30.74;55.37
42001;BME280;27689;48.390;10.856;2023-06-22T10:08:03;95989.63;;;30.82;56.19
42001;BME280;27689;48.390;10.856;2023-06-22T10:10:47;95990.38;;;30.93;54.64
42001;BME280;27689;48.390;10.856;2023-06-22T10:13:31;96001.38;;;31.17;52.17
42001;BME280;27689;48.390;10.856;2023-06-22T10:16:15;96002.75;;;31.04;51.81
42001;BME280;27689;48.390;10.856;2023-06-22T10:18:59;96001.25;;;30.83;54.72
42001;BME280;27689;48.390;10.856;2023-06-22T10:21:43;96016.66;;;30.88;55.62
42001;BME280;27689;48.390;10.856;2023-06-22T10:24:27;96009.66;;;30.81;54.59
42001;BME280;27689;48.390;10.856;2023-06-22T10:27:11;96020.69;;;30.95;54.11
42001;BME280;27689;48.390;10.856;2023-06-22T10:29:55;96016.84;;;31.06;52.38
42001;BME280;27689;48.390;10.856;2023-06-22T10:32:40;96017.34;;;31.18;54.81
42001;BME280;27689;48.390;10.856;2023-06-22T10:35:24;96007.09;;;31.05;51.59
42001;BME280;27689;48.390;10.856;2023-06-22T10:38:08;96006.75;;;31.22;53.83
42001;BME280;27689;48.390;10.856;2023-06-22T10:40:52;96009.13;;;31.34;54.32
42001;BME280;27689;48.390;10.856;2023-06-22T10:43:36;96009.00;;;31.49;53.90
42001;BME280;27689;48.390;10.856;2023-06-22T10:46:19;96002.97;;;31.67;52.98
42001;BME280;27689;48.390;10.856;2023-06-22T10:49:03;96004.41;;;31.88;52.42
42001;BME280;27689;48.390;10.856;2023-06-22T10:51:47;95996.72;;;32.01;53.14
42001;BME280;27689;48.390;10.856;2023-06-22T10:54:32;96006.88;;;32.19;51.02
42001;BME280;27689;48.390;10.856;2023-06-22T10:57:17;96009.94;;;32.36;48.92
42001;BME280;27689;48.390;10.856;2023-06-22T11:00:02;96003.88;;;32.44;48.57
42001;BME280;27689;48.390;10.856;2023-06-22T11:02:49;96000.38;;;32.44;47.80
42001;BME280;27689;48.390;10.856;2023-06-22T11:05:33;96002.22;;;32.48;47.43
42001;BME280;27689;48.390;10.856;2023-06-22T11:08:16;95994.41;;;32.66;49.21
42001;BME280;27689;48.390;10.856;2023-06-22T11:11:01;95998.66;;;32.77;46.43
42001;BME280;27689;48.390;10.856;2023-06-22T11:13:44;95985.88;;;32.53;48.06
42001;BME280;27689;48.390;10.856;2023-06-22T11:16:29;95985.69;;;32.69;50.05
42001;BME280;27689;48.390;10.856;2023-06-22T11:19:12;95980.47;;;32.96;47.52
42001;BME280;27689;48.390;10.856;2023-06-22T11:21:57;95978.00;;;33.18;47.97
42001;BME280;27689;48.390;10.856;2023-06-22T11:24:41;95977.44;;;33.40;47.49
42001;BME280;27689;48.390;10.856;2023-06-22T11:27:25;95982.22;;;33.30;46.57
42001;BME280;27689;48.390;10.856;2023-06-22T11:30:09;95988.41;;;33.35;48.19
42001;BME280;27689;48.390;10.856;2023-06-22T11:32:53;95982.50;;;33.47;47.33
42001;BME280;27689;48.390;10.856;2023-06-22T11:35:37;95984.28;;;33.70;45.55
42001;BME280;27689;48.390;10.856;2023-06-22T11:38:21;95974.13;;;33.62;45.26
42001;BME280;27689;48.390;10.856;2023-06-22T11:41:06;95967.31;;;33.46;44.99
42001;BME280;27689;48.390;10.856;2023-06-22T11:43:50;95965.63;;;33.50;44.03
42001;BME280;27689;48.390;10.856;2023-06-22T11:46:34;95951.88;;;33.22;45.75
42001;BME280;27689;48.390;10.856;2023-06-22T11:49:18;95949.47;;;33.40;44.49
42001;BME280;27689;48.390;10.856;2023-06-22T11:52:02;95950.97;;;33.65;46.16
42001;BME280;27689;48.390;10.856;2023-06-22T11:54:46;95942.69;;;33.88;45.70
42001;BME280;27689;48.390;10.856;2023-06-22T11:57:33;95934.47;;;33.93;46.25
42001;BME280;27689;48.390;10.856;2023-06-22T12:00:18;95938.59;;;33.91;45.42
42001;BME280;27689;48.390;10.856;2023-06-22T12:03:03;95937.47;;;33.78;45.95
42001;BME280;27689;48.390;10.856;2023-06-22T12:05:47;95927.19;;;33.56;45.86
42001;BME280;27689;48.390;10.856;2023-06-22T12:08:31;95933.47;;;33.38;45.00
42001;BME280;27689;48.390;10.856;2023-06-22T12:11:16;95927.31;;;33.33;46.38
42001;BME280;27689;48.390;10.856;2023-06-22T12:14:00;95923.53;;;33.47;46.45
42001;BME280;27689;48.390;10.856;2023-06-22T12:16:45;95923.69;;;33.70;45.75
42001;BME280;27689;48.390;10.856;2023-06-22T12:19:29;95921.69;;;33.61;43.04
42001;BME280;27689;48.390;10.856;2023-06-22T12:22:13;95923.06;;;33.59;43.17
42001;BME280;27689;48.390;10.856;2023-06-22T12:24:57;95915.72;;;33.92;44.54
42001;BME280;27689;48.390;10.856;2023-06-22T12:27:41;95913.75;;;33.97;43.51
42001;BME280;27689;48.390;10.856;2023-06-22T12:30:25;95913.56;;;33.75;41.37
42001;BME280;27689;48.390;10.856;2023-06-22T12:33:09;95909.66;;;33.49;41.82
42001;BME280;27689;48.390;10.856;2023-06-22T12:35:53;95897.78;;;33.77;42.21
42001;BME280;27689;48.390;10.856;2023-06-22T12:38:37;95899.22;;;34.02;42.00
42001;BME280;27689;48.390;10.856;2023-06-22T12:41:21;95885.91;;;34.14;41.02
42001;BME280;27689;48.390;10.856;2023-06-22T12:44:05;95898.94;;;34.31;42.34
42001;BME280;27689;48.390;10.856;2023-06-22T12:46:49;95893.19;;;34.60;44.23
42001;BME280;27689;48.390;10.856;2023-06-22T12:49:33;95889.72;;;34.95;41.61
42001;BME280;27689;48.390;10.856;2023-06-22T12:52:17;95893.38;;;35.27;42.23
42001;BME280;27689;48.390;10.856;2023-06-22T12:55:01;95900.94;;;35.30;40.17
42001;BME280;27689;48.390;10.856;2023-06-22T12:57:45;95898.56;;;35.37;42.38
42001;BME280;27689;48.390;10.856;2023-06-22T13:00:28;95891.56;;;35.45;41.72
42001;BME280;27689;48.390;10.856;2023-06-22T13:03:13;95895.25;;;35.71;40.53
42001;BME280;27689;48.390;10.856;2023-06-22T13:05:58;95895.50;;;35.83;39.45
42001;BME280;27689;48.390;10.856;2023-06-22T13:08:42;95900.03;;;35.88;40.25
42001;BME280;27689;48.390;10.856;2023-06-22T13:11:27;95902.94;;;35.91;38.56
42001;BME280;27689;48.390;10.856;2023-06-22T13:14:11;95896.94;;;35.81;38.62
42001;BME280;27689;48.390;10.856;2023-06-22T13:16:55;95884.63;;;35.61;39.41
42001;BME280;27689;48.390;10.856;2023-06-22T13:19:39;95883.44;;;35.76;38.68
42001;BME280;27689;48.390;10.856;2023-06-22T13:22:34;95887.00;;;35.85;39.70
42001;BME280;27689;48.390;10.856;2023-06-22T13:25:26;95890.47;;;35.77;37.72
42001;BME280;27689;48.390;10.856;2023-06-22T13:28:10;95890.69;;;35.35;38.12
42001;BME280;27689;48.390;10.856;2023-06-22T13:30:59;95890.47;;;35.10;39.58
42001;BME280;27689;48.390;10.856;2023-06-22T13:33:43;95884.56;;;35.30;39.02
42001;BME280;27689;48.390;10.856;2023-06-22T13:36:29;95888.19;;;35.48;38.01
42001;BME280;27689;48.390;10.856;2023-06-22T13:39:14;95878.19;;;35.57;38.03
42001;BME280;27689;48.390;10.856;2023-06-22T13:41:59;95871.34;;;35.68;37.59
42001;BME280;27689;48.390;10.856;2023-06-22T13:44:43;95870.16;;;35.83;37.30
42001;BME280;27689;48.390;10.856;2023-06-22T13:47:27;95870.34;;;35.64;37.69
42001;BME280;27689;48.390;10.856;2023-06-22T13:50:11;95872.88;;;35.29;37.56
42001;BME280;27689;48.390;10.856;2023-06-22T13:52:56;95865.91;;;35.01;38.25
42001;BME280;27689;48.390;10.856;2023-06-22T13:55:40;95868.78;;;34.69;38.86
42001;BME280;27689;48.390;10.856;2023-06-22T13:58:24;95855.84;;;34.38;40.18
42001;BME280;27689;48.390;10.856;2023-06-22T14:01:08;95871.34;;;34.38;39.57
42001;BME280;27689;48.390;10.856;2023-06-22T14:03:52;95864.69;;;34.30;39.48
42001;BME280;27689;48.390;10.856;2023-06-22T14:06:38;95855.84;;;34.11;39.85
42001;BME280;27689;48.390;10.856;2023-06-22T14:09:21;95853.13;;;34.11;38.03
42001;BME280;27689;48.390;10.856;2023-06-22T14:12:06;95854.50;;;34.22;35.94
42001;BME280;27689;48.390;10.856;2023-06-22T14:14:50;95849.28;;;33.98;36.12
42001;BME280;27689;48.390;10.856;2023-06-22T14:17:34;95851.78;;;33.81;35.56
42001;BME280;27689;48.390;10.856;2023-06-22T14:20:18;95841.97;;;33.66;35.70
42001;BME280;27689;48.390;10.856;2023-06-22T14:23:02;95837.88;;;33.69;33.20